sensor_id;sensor_type;location;lat;lon;timestamp;noise_LAeq;noise_LA_min;noise_LA_max;noise_LA01;noise_LA95
61249;Laerm;47119;49.130;9.218;2023-07-22T00:01:29;47.14;45.95;50.50;;
61249;Laerm;47119;49.130;9.218;2023-07-22T00:03:56;47.14;45.82;53.19;;
61249;Laerm;47119;49.130;9.218;2023-07-22T00:06:28;47.15;45.80;50.99;;
61249;Laerm;47119;49.130;9.218;2023-07-22T00:08:57;47.24;46.05;53.98;;
61249;Laerm;47119;49.130;9.218;2023-07-22T00:11:24;47.12;45.55;50.12;;
61249;Laerm;47119;49.130;9.218;2023-07-22T00:13:51;47.07;45.94;51.61;;
61249;Laerm;47119;49.130;9.218;2023-07-22T00:16:21;46.99;45.79;50.03;;
61249;Laerm;47119;49.130;9.218;2023-07-22T00:18:52;46.95;45.76;51.56;;
61249;Laerm;47119;49.130;9.218;2023-07-22T00:21:24;46.93;45.68;51.25;;
61249;Laerm;47119;49.130;9.218;2023-07-22T00:23:54;47.04;45.46;48.41;;
61249;Laerm;47119;49.130;9.218;2023-07-22T00:26:22;46.98;45.91;49.86;;
61249;Laerm;47119;49.130;9.218;2023-07-22T00:28:59;46.98;45.82;50.69;;
61249;Laerm;47119;49.130;9.218;2023-07-22T00:31:26;47.02;45.78;50.23;;
61249;Laerm;47119;49.130;9.218;2023-07-22T00:33:55;47.07;45.92;50.89;;
61249;Laerm;47119;49.130;9.218;2023-07-22T00:36:27;47.04;45.94;51.47;;
61249;Laerm;47119;49.130;9.218;2023-07-22T00:38:56;47.15;45.91;49.84;;
61249;Laerm;47119;49.130;9.218;2023-07-22T00:41:27;47.12;45.61;51.78;;
61249;Laerm;47119;49.130;9.218;2023-07-22T00:43:56;46.98;45.77;49.98;;
61249;Laerm;47119;49.130;9.218;2023-07-22T00:46:23;47.02;45.78;50.15;;
61249;Laerm;47119;49.130;9.218;2023-07-22T00:48:53;47.48;45.94;56.93;;
61249;Laerm;47119;49.130;9.218;2023-07-22T00:51:25;47.61;45.94;52.58;;
61249;Laerm;47119;49.130;9.218;2023-07-22T00:53:56;47.14;45.87;50.79;;
61249;Laerm;47119;49.130;9.218;2023-07-22T00:56:33;47.26;45.97;50.99;;
61249;Laerm;47119;49.130;9.218;2023-07-22T00:59:05;47.11;45.96;50.59;;
61249;Laerm;47119;49.130;9.218;2023-07-22T01:01:37;47.01;45.74;50.26;;
61249;Laerm;47119;49.130;9.218;2023-07-22T01:04:04;47.01;45.86;50.76;;
61249;Laerm;47119;49.130;9.218;2023-07-22T01:06:35;47.05;45.89;58.27;;
61249;Laerm;47119;49.130;9.218;2023-07-22T01:09:05;47.00;45.87;48.71;;
61249;Laerm;47119;49.130;9.218;2023-07-22T01:11:38;46.97;45.72;48.66;;
61249;Laerm;47119;49.130;9.218;2023-07-22T01:14:09;46.98;45.78;49.47;;
61249;Laerm;47119;49.130;9.218;2023-07-22T01:16:39;46.96;45.81;48.82;;
61249;Laerm;47119;49.130;9.218;2023-07-22T01:19:10;46.97;45.85;49.71;;
61249;Laerm;47119;49.130;9.218;2023-07-22T01:21:42;46.97;45.71;50.05;;
61249;Laerm;47119;49.130;9.218;2023-07-22T01:24:11;46.98;45.85;49.28;;
61249;Laerm;47119;49.130;9.218;2023-07-22T01:26:40;46.98;45.90;49.20;;
61249;Laerm;47119;49.130;9.218;2023-07-22T01:29:09;47.02;45.78;49.70;;
61249;Laerm;47119;49.130;9.218;2023-07-22T01:31:38;46.98;45.77;51.27;;
61249;Laerm;47119;49.130;9.218;2023-07-22T01:34:08;47.06;45.99;49.59;;
61249;Laerm;47119;49.130;9.218;2023-07-22T01:36:37;47.07;45.94;48.63;;
61249;Laerm;47119;49.130;9.218;2023-07-22T01:39:07;47.06;45.93;50.53;;
61249;Laerm;47119;49.130;9.218;2023-07-22T01:41:35;47.04;46.04;51.19;;
61249;Laerm;47119;49.130;9.218;2023-07-22T01:44:05;47.04;45.94;51.38;;
61249;Laerm;47119;49.130;9.218;2023-07-22T01:46:32;47.17;45.98;49.04;;
61249;Laerm;47119;49.130;9.218;2023-07-22T01:49:05;47.21;46.00;51.82;;
61249;Laerm;47119;49.130;9.218;2023-07-22T01:51:37;49.55;46.06;60.06;;
61249;Laerm;47119;49.130;9.218;2023-07-22T01:54:06;48.92;45.95;60.88;;
61249;Laerm;47119;49.130;9.218;2023-07-22T01:56:39;49.06;45.90;57.97;;
61249;Laerm;47119;49.130;9.218;2023-07-22T01:59:08;47.86;45.89;57.84;;
61249;Laerm;47119;49.130;9.218;2023-07-22T02:01:37;49.05;46.01;57.37;;
61249;Laerm;47119;49.130;9.218;2023-07-22T02:04:05;53.49;46.58;60.08;;
61249;Laerm;47119;49.130;9.218;2023-07-22T02:06:35;58.84;46.51;66.17;;
61249;Laerm;47119;49.130;9.218;2023-07-22T02:09:04;62.19;49.29;67.04;;
61249;Laerm;47119;49.130;9.218;2023-07-22T02:11:37;63.45;56.58;69.43;;
61249;Laerm;47119;49.130;9.218;2023-07-22T02:14:07;63.12;46.92;69.85;;
61249;Laerm;47119;49.130;9.218;2023-07-22T02:16:34;57.50;46.57;64.51;;
61249;Laerm;47119;49.130;9.218;2023-07-22T02:19:05;52.59;46.02;63.80;;
61249;Laerm;47119;49.130;9.218;2023-07-22T02:21:39;48.96;46.09;52.53;;
61249;Laerm;47119;49.130;9.218;2023-07-22T02:24:15;52.00;46.20;62.10;;
61249;Laerm;47119;49.130;9.218;2023-07-22T02:26:44;55.14;46.89;61.99;;
61249;Laerm;47119;49.130;9.218;2023-07-22T02:29:11;56.37;49.54;59.47;;
61249;Laerm;47119;49.130;9.218;2023-07-22T02:31:41;55.70;46.67;58.64;;
61249;Laerm;47119;49.130;9.218;2023-07-22T02:34:08;54.88;46.23;58.86;;
61249;Laerm;47119;49.130;9.218;2023-07-22T02:36:40;53.32;46.84;58.79;;
61249;Laerm;47119;49.130;9.218;2023-07-22T02:39:09;52.40;45.97;58.27;;
61249;Laerm;47119;49.130;9.218;2023-07-22T02:41:38;51.87;46.22;57.62;;
61249;Laerm;47119;49.130;9.218;2023-07-22T02:44:09;51.77;46.16;57.96;;
61249;Laerm;47119;49.130;9.218;2023-07-22T02:46:39;50.99;46.15;56.25;;
61249;Laerm;47119;49.130;9.218;2023-07-22T02:49:06;51.45;45.94;56.52;;
61249;Laerm;47119;49.130;9.218;2023-07-22T02:51:33;51.30;46.00;56.31;;
61249;Laerm;47119;49.130;9.218;2023-07-22T02:54:01;50.68;46.08;56.32;;
61249;Laerm;47119;49.130;9.218;2023-07-22T02:56:31;48.04;45.90;53.80;;
61249;Laerm;47119;49.130;9.218;2023-07-22T02:59:00;50.08;46.20;55.31;;
61249;Laerm;47119;49.130;9.218;2023-07-22T03:01:28;50.96;46.46;54.94;;
61249;Laerm;47119;49.130;9.218;2023-07-22T03:03:59;51.00;46.73;55.39;;
61249;Laerm;47119;49.130;9.218;2023-07-22T03:06:29;51.98;46.80;55.80;;
61249;Laerm;47119;49.130;9.218;2023-07-22T03:08:57;50.86;46.41;54.99;;
61249;Laerm;47119;49.130;9.218;2023-07-22T03:11:26;49.41;46.14;56.25;;
61249;Laerm;47119;49.130;9.218;2023-07-22T03:13:55;48.27;45.97;54.40;;
61249;Laerm;47119;49.130;9.218;2023-07-22T03:16:23;48.59;46.13;53.33;;
61249;Laerm;47119;49.130;9.218;2023-07-22T03:18:51;48.98;45.73;53.86;;
61249;Laerm;47119;49.130;9.218;2023-07-22T03:21:18;53.98;46.27;61.28;;
61249;Laerm;47119;49.130;9.218;2023-07-22T03:23:45;54.85;47.81;61.80;;
61249;Laerm;47119;49.130;9.218;2023-07-22T03:26:12;51.80;47.38;61.91;;
61249;Laerm;47119;49.130;9.218;2023-07-22T03:28:41;53.30;47.13;61.35;;
61249;Laerm;47119;49.130;9.218;2023-07-22T03:31:10;53.86;47.94;63.37;;
61249;Laerm;47119;49.130;9.218;2023-07-22T03:33:38;53.51;48.24;60.90;;
61249;Laerm;47119;49.130;9.218;2023-07-22T03:36:13;53.61;47.94;59.96;;
61249;Laerm;47119;49.130;9.218;2023-07-22T03:38:40;53.26;47.45;60.02;;
61249;Laerm;47119;49.130;9.218;2023-07-22T03:41:12;53.11;48.05;60.36;;
61249;Laerm;47119;49.130;9.218;2023-07-22T03:43:39;52.87;48.28;60.16;;
61249;Laerm;47119;49.130;9.218;2023-07-22T03:46:06;53.13;48.33;59.64;;
61249;Laerm;47119;49.130;9.218;2023-07-22T03:48:36;52.94;48.55;59.21;;
61249;Laerm;47119;49.130;9.218;2023-07-22T03:51:07;53.47;48.64;60.04;;
61249;Laerm;47119;49.130;9.218;2023-07-22T03:53:38;53.64;48.66;58.67;;
61249;Laerm;47119;49.130;9.218;2023-07-22T03:56:05;53.48;48.51;58.90;;
61249;Laerm;47119;49.130;9.218;2023-07-22T03:58:32;54.06;48.66;60.41;;
61249;Laerm;47119;49.130;9.218;2023-07-22T04:01:01;53.97;49.12;59.41;;
61249;Laerm;47119;49.130;9.218;2023-07-22T04:03:30;53.31;48.74;58.82;;
61249;Laerm;47119;49.130;9.218;2023-07-22T04:05:57;52.07;46.40;58.82;;
61249;Laerm;47119;49.130;9.218;2023-07-22T04:08:24;49.68;45.82;57.91;;
61249;Laerm;47119;49.130;9.218;2023-07-22T04:10:54;50.66;46.34;57.38;;
61249;Laerm;47119;49.130;9.218;2023-07-22T04:13:26;50.20;46.30;58.33;;
61249;Laerm;47119;49.130;9.218;2023-07-22T04:15:55;50.23;46.29;58.10;;
61249;Laerm;47119;49.130;9.218;2023-07-22T04:18:27;50.15;46.34;57.59;;
61249;Laerm;47119;49.130;9.218;2023-07-22T04:21:00;50.45;46.26;57.98;;
61249;Laerm;47119;49.130;9.218;2023-07-22T04:23:27;50.69;46.21;58.87;;
61249;Laerm;47119;49.130;9.218;2023-07-22T04:25:58;50.26;46.24;59.03;;
61249;Laerm;47119;49.130;9.218;2023-07-22T04:28:27;49.84;46.25;57.07;;
61249;Laerm;47119;49.130;9.218;2023-07-22T04:30:56;49.74;46.32;57.39;;
61249;Laerm;47119;49.130;9.218;2023-07-22T04:33:26;50.20;46.02;58.18;;
61249;Laerm;47119;49.130;9.218;2023-07-22T04:35:59;49.71;46.23;57.83;;
61249;Laerm;47119;49.130;9.218;2023-07-22T04:38:27;50.17;46.48;57.92;;
61249;Laerm;47119;49.130;9.218;2023-07-22T04:40:53;49.92;46.17;57.15;;
61249;Laerm;47119;49.130;9.218;2023-07-22T04:43:24;50.06;46.38;57.99;;
61249;Laerm;47119;49.130;9.218;2023-07-22T04:45:54;50.14;45.89;58.79;;
61249;Laerm;47119;49.130;9.218;2023-07-22T04:48:23;49.10;46.26;56.65;;
61249;Laerm;47119;49.130;9.218;2023-07-22T04:50:53;49.93;46.41;57.72;;
61249;Laerm;47119;49.130;9.218;2023-07-22T04:53:21;49.66;46.14;57.81;;
61249;Laerm;47119;49.130;9.218;2023-07-22T04:55:53;50.02;46.34;57.74;;
61249;Laerm;47119;49.130;9.218;2023-07-22T04:58:24;49.75;46.26;58.07;;
61249;Laerm;47119;49.130;9.218;2023-07-22T05:00:51;50.10;46.09;58.15;;
61249;Laerm;47119;49.130;9.218;2023-07-22T05:03:20;49.74;46.14;57.69;;
61249;Laerm;47119;49.130;9.218;2023-07-22T05:05:50;49.70;46.22;57.52;;
61249;Laerm;47119;49.130;9.218;2023-07-22T05:08:18;49.50;46.38;57.43;;
61249;Laerm;47119;49.130;9.218;2023-07-22T05:10:47;49.88;46.35;57.28;;
61249;Laerm;47119;49.130;9.218;2023-07-22T05:13:17;49.89;46.32;59.07;;
61249;Laerm;47119;49.130;9.218;2023-07-22T05:15:45;50.13;46.33;57.96;;
61249;Laerm;47119;49.130;9.218;2023-07-22T05:18:17;48.89;46.25;58.78;;
61249;Laerm;47119;49.130;9.218;2023-07-22T05:20:46;50.08;46.26;58.19;;
61249;Laerm;47119;49.130;9.218;2023-07-22T05:23:15;50.13;46.27;59.47;;
61249;Laerm;47119;49.130;9.218;2023-07-22T05:25:51;50.11;46.15;57.92;;
61249;Laerm;47119;49.130;9.218;2023-07-22T05:28:19;49.73;46.28;56.85;;
61249;Laerm;47119;49.130;9.218;2023-07-22T05:30:47;49.80;46.45;56.95;;
61249;Laerm;47119;49.130;9.218;2023-07-22T05:33:14;49.85;46.32;57.26;;
61249;Laerm;47119;49.130;9.218;2023-07-22T05:35:44;50.11;46.36;57.50;;
61249;Laerm;47119;49.130;9.218;2023-07-22T05:38:11;49.53;46.16;56.40;;
61249;Laerm;47119;49.130;9.218;2023-07-22T05:40:40;50.08;46.49;58.33;;
61249;Laerm;47119;49.130;9.218;2023-07-22T05:43:09;50.03;46.35;57.79;;
61249;Laerm;47119;49.130;9.218;2023-07-22T05:45:41;49.87;46.24;58.55;;
61249;Laerm;47119;49.130;9.218;2023-07-22T05:48:12;50.79;46.43;58.42;;
61249;Laerm;47119;49.130;9.218;2023-07-22T05:50:41;50.00;46.35;58.39;;
61249;Laerm;47119;49.130;9.218;2023-07-22T05:53:12;49.94;46.33;58.65;;
61249;Laerm;47119;49.130;9.218;2023-07-22T05:55:41;50.50;46.21;59.64;;
61249;Laerm;47119;49.130;9.218;2023-07-22T05:58:15;51.28;46.26;59.09;;
61249;Laerm;47119;49.130;9.218;2023-07-22T06:00:45;51.04;46.25;58.88;;
61249;Laerm;47119;49.130;9.218;2023-07-22T06:03:14;51.63;46.23;59.88;;
61249;Laerm;47119;49.130;9.218;2023-07-22T06:05:41;51.42;46.19;59.70;;
61249;Laerm;47119;49.130;9.218;2023-07-22T06:08:10;49.18;46.09;57.04;;
61249;Laerm;47119;49.130;9.218;2023-07-22T06:10:40;50.03;46.18;58.40;;
61249;Laerm;47119;49.130;9.218;2023-07-22T06:13:09;51.17;46.12;60.56;;
61249;Laerm;47119;49.130;9.218;2023-07-22T06:15:37;50.94;46.27;58.38;;
61249;Laerm;47119;49.130;9.218;2023-07-22T06:18:03;51.96;46.29;59.93;;
61249;Laerm;47119;49.130;9.218;2023-07-22T06:20:38;52.08;46.07;62.10;;
61249;Laerm;47119;49.130;9.218;2023-07-22T06:23:07;51.10;46.14;59.62;;
61249;Laerm;47119;49.130;9.218;2023-07-22T06:25:48;52.01;46.35;60.58;;
61249;Laerm;47119;49.130;9.218;2023-07-22T06:28:14;52.59;46.06;60.57;;
61249;Laerm;47119;49.130;9.218;2023-07-22T06:30:44;52.27;46.27;59.37;;
61249;Laerm;47119;49.130;9.218;2023-07-22T06:33:11;53.04;47.93;59.41;;
61249;Laerm;47119;49.130;9.218;2023-07-22T06:35:44;53.31;47.67;60.12;;
61249;Laerm;47119;49.130;9.218;2023-07-22T06:38:11;52.89;47.23;59.41;;
61249;Laerm;47119;49.130;9.218;2023-07-22T06:40:38;53.25;47.48;59.51;;
61249;Laerm;47119;49.130;9.218;2023-07-22T06:43:04;53.25;47.45;58.87;;
61249;Laerm;47119;49.130;9.218;2023-07-22T06:45:32;52.13;47.33;58.12;;
61249;Laerm;47119;49.130;9.218;2023-07-22T06:47:59;52.69;46.88;59.42;;
61249;Laerm;47119;49.130;9.218;2023-07-22T06:50:26;52.48;46.45;60.09;;
61249;Laerm;47119;49.130;9.218;2023-07-22T06:52:57;52.93;46.58;64.24;;
61249;Laerm;47119;49.130;9.218;2023-07-22T06:55:26;52.72;47.36;58.46;;
61249;Laerm;47119;49.130;9.218;2023-07-22T06:57:55;52.58;47.16;59.14;;
61249;Laerm;47119;49.130;9.218;2023-07-22T07:00:27;52.91;47.28;59.72;;
61249;Laerm;47119;49.130;9.218;2023-07-22T07:02:56;52.75;46.53;59.84;;
61249;Laerm;47119;49.130;9.218;2023-07-22T07:05:28;52.88;46.87;60.06;;
61249;Laerm;47119;49.130;9.218;2023-07-22T07:07:58;52.94;46.55;60.03;;
61249;Laerm;47119;49.130;9.218;2023-07-22T07:10:28;52.90;46.54;60.74;;
61249;Laerm;47119;49.130;9.218;2023-07-22T07:12:57;53.11;46.66;60.09;;
61249;Laerm;47119;49.130;9.218;2023-07-22T07:15:29;52.96;46.69;59.31;;
61249;Laerm;47119;49.130;9.218;2023-07-22T07:18:00;52.49;46.64;60.11;;
61249;Laerm;47119;49.130;9.218;2023-07-22T07:20:28;52.76;46.61;60.09;;
61249;Laerm;47119;49.130;9.218;2023-07-22T07:22:54;53.17;46.33;60.59;;
61249;Laerm;47119;49.130;9.218;2023-07-22T07:25:23;53.31;46.71;60.05;;
61249;Laerm;47119;49.130;9.218;2023-07-22T07:27:52;52.86;46.59;61.66;;
61249;Laerm;47119;49.130;9.218;2023-07-22T07:30:22;53.91;46.61;61.17;;
61249;Laerm;47119;49.130;9.218;2023-07-22T07:32:53;54.52;46.62;61.13;;
61249;Laerm;47119;49.130;9.218;2023-07-22T07:35:20;54.74;46.50;61.44;;
61249;Laerm;47119;49.130;9.218;2023-07-22T07:37:47;56.27;46.35;61.88;;
61249;Laerm;47119;49.130;9.218;2023-07-22T07:40:14;56.06;46.46;62.05;;
61249;Laerm;47119;49.130;9.218;2023-07-22T07:42:43;55.79;46.22;61.69;;
61249;Laerm;47119;49.130;9.218;2023-07-22T07:45:10;54.87;46.16;62.01;;
61249;Laerm;47119;49.130;9.218;2023-07-22T07:47:37;53.19;46.17;59.57;;
61249;Laerm;47119;49.130;9.218;2023-07-22T07:50:06;53.66;46.22;60.63;;
61249;Laerm;47119;49.130;9.218;2023-07-22T07:52:35;53.10;46.24;59.55;;
61249;Laerm;47119;49.130;9.218;2023-07-22T07:55:05;53.07;46.27;59.88;;
61249;Laerm;47119;49.130;9.218;2023-07-22T07:57:32;54.07;46.48;61.07;;
61249;Laerm;47119;49.130;9.218;2023-07-22T08:00:05;54.26;46.06;60.26;;
61249;Laerm;47119;49.130;9.218;2023-07-22T08:02:37;54.53;46.46;60.67;;
61249;Laerm;47119;49.130;9.218;2023-07-22T08:05:04;52.37;46.25;59.69;;
61249;Laerm;47119;49.130;9.218;2023-07-22T08:07:34;50.56;46.18;58.32;;
61249;Laerm;47119;49.130;9.218;2023-07-22T08:10:05;50.81;46.15;61.31;;
61249;Laerm;47119;49.130;9.218;2023-07-22T08:12:35;50.56;46.09;57.63;;
61249;Laerm;47119;49.130;9.218;2023-07-22T08:15:07;50.42;45.83;58.49;;
61249;Laerm;47119;49.130;9.218;2023-07-22T08:17:37;50.50;46.14;57.92;;
61249;Laerm;47119;49.130;9.218;2023-07-22T08:20:06;50.47;46.00;57.80;;
61249;Laerm;47119;49.130;9.218;2023-07-22T08:22:34;50.51;46.11;57.01;;
61249;Laerm;47119;49.130;9.218;2023-07-22T08:25:04;50.75;45.79;58.12;;
61249;Laerm;47119;49.130;9.218;2023-07-22T08:27:34;50.70;45.98;57.68;;
61249;Laerm;47119;49.130;9.218;2023-07-22T08:30:06;50.75;46.22;57.52;;
61249;Laerm;47119;49.130;9.218;2023-07-22T08:32:34;52.52;46.04;59.22;;
61249;Laerm;47119;49.130;9.218;2023-07-22T08:35:05;52.51;46.06;60.22;;
61249;Laerm;47119;49.130;9.218;2023-07-22T08:38:27;52.53;46.13;59.15;;
61249;Laerm;47119;49.130;9.218;2023-07-22T08:41:14;51.94;46.18;60.20;;
61249;Laerm;47119;49.130;9.218;2023-07-22T08:44:27;51.73;45.91;58.80;;
61249;Laerm;47119;49.130;9.218;2023-07-22T08:47:15;52.74;46.22;59.18;;
61249;Laerm;47119;49.130;9.218;2023-07-22T08:49:51;52.84;46.22;60.16;;
61249;Laerm;47119;49.130;9.218;2023-07-22T08:52:19;52.86;46.12;59.41;;
61249;Laerm;47119;49.130;9.218;2023-07-22T08:54:50;52.89;46.23;59.42;;
61249;Laerm;47119;49.130;9.218;2023-07-22T08:57:20;52.02;46.29;60.17;;
61249;Laerm;47119;49.130;9.218;2023-07-22T08:59:54;50.93;46.14;58.62;;
61249;Laerm;47119;49.130;9.218;2023-07-22T09:02:24;52.04;46.13;58.91;;
61249;Laerm;47119;49.130;9.218;2023-07-22T09:04:51;52.78;46.09;59.69;;
61249;Laerm;47119;49.130;9.218;2023-07-22T09:40:18;51.88;45.68;59.51;;
61249;Laerm;47119;49.130;9.218;2023-07-22T09:43:11;53.27;46.01;59.56;;
61249;Laerm;47119;49.130;9.218;2023-07-22T09:45:39;53.48;45.93;59.57;;
61249;Laerm;47119;49.130;9.218;2023-07-22T09:48:11;53.62;45.81;59.53;;
61249;Laerm;47119;49.130;9.218;2023-07-22T09:50:44;53.63;46.12;59.74;;
61249;Laerm;47119;49.130;9.218;2023-07-22T09:57:23;52.84;46.23;59.70;;
61249;Laerm;47119;49.130;9.218;2023-07-22T09:59:55;53.94;46.63;59.64;;
61249;Laerm;47119;49.130;9.218;2023-07-22T10:02:22;53.11;46.60;60.07;;
61249;Laerm;47119;49.130;9.218;2023-07-22T10:04:59;53.65;46.50;59.74;;
61249;Laerm;47119;49.130;9.218;2023-07-22T10:07:38;54.36;46.87;60.35;;
61249;Laerm;47119;49.130;9.218;2023-07-22T10:10:10;52.46;46.76;58.58;;
61249;Laerm;47119;49.130;9.218;2023-07-22T10:12:46;53.16;46.80;60.79;;
61249;Laerm;47119;49.130;9.218;2023-07-22T10:15:15;53.46;46.57;60.55;;
61249;Laerm;47119;49.130;9.218;2023-07-22T10:18:23;51.39;45.19;62.74;;
61249;Laerm;47119;49.130;9.218;2023-07-22T10:20:52;48.14;45.82;54.48;;
61249;Laerm;47119;49.130;9.218;2023-07-22T10:23:25;48.04;45.78;55.22;;
61249;Laerm;47119;49.130;9.218;2023-07-22T10:25:57;49.78;46.23;55.93;;
61249;Laerm;47119;49.130;9.218;2023-07-22T10:28:55;50.83;45.64;62.89;;
61249;Laerm;47119;49.130;9.218;2023-07-22T10:31:33;51.69;47.10;58.10;;
61249;Laerm;47119;49.130;9.218;2023-07-22T10:34:00;51.77;46.85;58.15;;
61249;Laerm;47119;49.130;9.218;2023-07-22T10:36:31;51.04;45.86;58.27;;
61249;Laerm;47119;49.130;9.218;2023-07-22T10:39:44;56.74;45.59;72.23;;
61249;Laerm;47119;49.130;9.218;2023-07-22T10:42:27;52.10;45.94;61.56;;
61249;Laerm;47119;49.130;9.218;2023-07-22T10:45:03;57.71;46.10;71.08;;
61249;Laerm;47119;49.130;9.218;2023-07-22T10:48:05;51.63;46.17;66.85;;
61249;Laerm;47119;49.130;9.218;2023-07-22T10:50:47;50.05;46.39;62.85;;
61249;Laerm;47119;49.130;9.218;2023-07-22T10:53:28;54.83;46.24;65.12;;
61249;Laerm;47119;49.130;9.218;2023-07-22T10:59:00;47.10;45.77;61.59;;
61249;Laerm;47119;49.130;9.218;2023-07-22T11:02:00;46.89;45.67;55.47;;
61249;Laerm;47119;49.130;9.218;2023-07-22T11:25:07;50.69;46.17;69.81;;
61249;Laerm;47119;49.130;9.218;2023-07-22T11:27:35;48.23;46.10;59.60;;
61249;Laerm;47119;49.130;9.218;2023-07-22T11:30:03;48.61;46.49;57.61;;
61249;Laerm;47119;49.130;9.218;2023-07-22T11:32:32;48.60;46.45;58.64;;
61249;Laerm;47119;49.130;9.218;2023-07-22T11:35:02;49.32;46.19;61.86;;
61249;Laerm;47119;49.130;9.218;2023-07-22T11:37:32;57.42;45.72;67.11;;
61249;Laerm;47119;49.130;9.218;2023-07-22T11:40:02;52.73;45.94;72.52;;
61249;Laerm;47119;49.130;9.218;2023-07-22T11:42:34;58.36;45.81;74.01;;
61249;Laerm;47119;49.130;9.218;2023-07-22T11:45:01;61.31;47.07;72.04;;
61249;Laerm;47119;49.130;9.218;2023-07-22T11:47:29;55.81;46.31;75.93;;
61249;Laerm;47119;49.130;9.218;2023-07-22T11:49:58;50.84;46.10;61.94;;
61249;Laerm;47119;49.130;9.218;2023-07-22T11:52:25;51.04;46.69;56.20;;
61249;Laerm;47119;49.130;9.218;2023-07-22T11:54:53;51.36;47.33;61.38;;
61249;Laerm;47119;49.130;9.218;2023-07-22T11:57:22;52.16;46.75;61.74;;
61249;Laerm;47119;49.130;9.218;2023-07-22T11:59:56;52.58;46.69;61.06;;
61249;Laerm;47119;49.130;9.218;2023-07-22T12:02:27;51.45;46.35;67.06;;
61249;Laerm;47119;49.130;9.218;2023-07-22T12:04:57;56.58;46.29;74.73;;
61249;Laerm;47119;49.130;9.218;2023-07-22T12:07:27;52.71;45.44;61.44;;
61249;Laerm;47119;49.130;9.218;2023-07-22T12:09:57;54.32;45.60;63.16;;
61249;Laerm;47119;49.130;9.218;2023-07-22T12:12:32;52.75;45.76;73.28;;
61249;Laerm;47119;49.130;9.218;2023-07-22T12:15:08;50.13;46.57;61.58;;
61249;Laerm;47119;49.130;9.218;2023-07-22T12:17:51;54.56;46.51;61.75;;
61249;Laerm;47119;49.130;9.218;2023-07-22T12:20:24;53.94;46.59;59.66;;
61249;Laerm;47119;49.130;9.218;2023-07-22T12:22:52;54.99;46.89;60.23;;
61249;Laerm;47119;49.130;9.218;2023-07-22T12:25:29;55.04;47.18;60.27;;
61249;Laerm;47119;49.130;9.218;2023-07-22T12:28:06;53.61;46.12;62.53;;
61249;Laerm;47119;49.130;9.218;2023-07-22T12:30:35;53.75;45.75;60.95;;
61249;Laerm;47119;49.130;9.218;2023-07-22T12:33:02;52.96;46.18;59.45;;
61249;Laerm;47119;49.130;9.218;2023-07-22T12:35:35;53.06;45.78;61.14;;
61249;Laerm;47119;49.130;9.218;2023-07-22T12:38:06;48.31;45.69;61.42;;
61249;Laerm;47119;49.130;9.218;2023-07-22T12:40:41;50.08;45.47;59.86;;
61249;Laerm;47119;49.130;9.218;2023-07-22T12:43:11;48.29;45.64;59.31;;
61249;Laerm;47119;49.130;9.218;2023-07-22T12:45:40;49.29;45.64;60.22;;
61249;Laerm;47119;49.130;9.218;2023-07-22T12:48:09;49.36;45.90;59.41;;
61249;Laerm;47119;49.130;9.218;2023-07-22T12:50:39;59.68;46.21;72.02;;
61249;Laerm;47119;49.130;9.218;2023-07-22T12:53:06;66.68;47.65;76.91;;
61249;Laerm;47119;49.130;9.218;2023-07-22T12:55:34;66.76;47.07;78.47;;
61249;Laerm;47119;49.130;9.218;2023-07-22T12:58:04;67.92;46.37;88.32;;
61249;Laerm;47119;49.130;9.218;2023-07-22T13:00:31;63.13;48.07;83.32;;
61249;Laerm;47119;49.130;9.218;2023-07-22T13:03:00;60.58;52.10;73.81;;
61249;Laerm;47119;49.130;9.218;2023-07-22T13:05:27;70.32;49.93;84.44;;
61249;Laerm;47119;49.130;9.218;2023-07-22T13:07:54;68.37;48.43;83.48;;
61249;Laerm;47119;49.130;9.218;2023-07-22T13:10:22;71.75;51.40;84.24;;
61249;Laerm;47119;49.130;9.218;2023-07-22T13:12:51;66.11;55.80;83.18;;
61249;Laerm;47119;49.130;9.218;2023-07-22T13:15:21;69.85;45.93;80.08;;
61249;Laerm;47119;49.130;9.218;2023-07-22T13:17:48;71.05;47.61;82.61;;
61249;Laerm;47119;49.130;9.218;2023-07-22T13:20:21;60.93;50.95;67.63;;
61249;Laerm;47119;49.130;9.218;2023-07-22T13:22:52;62.61;49.45;79.58;;
61249;Laerm;47119;49.130;9.218;2023-07-22T13:25:19;70.11;48.10;81.86;;
61249;Laerm;47119;49.130;9.218;2023-07-22T13:28:06;73.81;48.58;85.41;;
61249;Laerm;47119;49.130;9.218;2023-07-22T13:30:33;67.37;54.92;81.38;;
61249;Laerm;47119;49.130;9.218;2023-07-22T13:33:08;66.73;55.25;75.25;;
61249;Laerm;47119;49.130;9.218;2023-07-22T13:35:44;62.53;53.90;83.73;;
61249;Laerm;47119;49.130;9.218;2023-07-22T13:38:11;63.15;57.80;72.56;;
61249;Laerm;47119;49.130;9.218;2023-07-22T13:43:20;65.13;53.10;80.47;;
61249;Laerm;47119;49.130;9.218;2023-07-22T13:45:47;65.64;54.91;81.92;;
61249;Laerm;47119;49.130;9.218;2023-07-22T13:48:17;65.81;60.00;74.94;;
61249;Laerm;47119;49.130;9.218;2023-07-22T13:50:45;66.87;63.20;75.42;;
61249;Laerm;47119;49.130;9.218;2023-07-22T13:53:40;67.82;64.60;76.33;;
61249;Laerm;47119;49.130;9.218;2023-07-22T13:56:07;69.18;62.71;76.15;;
61249;Laerm;47119;49.130;9.218;2023-07-22T13:58:34;69.79;64.65;78.37;;
61249;Laerm;47119;49.130;9.218;2023-07-22T14:01:02;70.05;64.56;76.71;;
61249;Laerm;47119;49.130;9.218;2023-07-22T14:03:29;68.51;62.12;76.23;;
61249;Laerm;47119;49.130;9.218;2023-07-22T14:06:00;64.84;58.95;77.40;;
61249;Laerm;47119;49.130;9.218;2023-07-22T14:08:27;64.37;59.25;72.04;;
61249;Laerm;47119;49.130;9.218;2023-07-22T14:10:54;65.24;59.01;73.55;;
61249;Laerm;47119;49.130;9.218;2023-07-22T14:13:22;61.36;50.53;75.32;;
61249;Laerm;47119;49.130;9.218;2023-07-22T14:15:49;65.61;57.98;78.76;;
61249;Laerm;47119;49.130;9.218;2023-07-22T14:18:16;73.94;55.97;88.92;;
61249;Laerm;47119;49.130;9.218;2023-07-22T14:20:43;72.23;48.34;87.53;;
61249;Laerm;47119;49.130;9.218;2023-07-22T14:23:14;64.84;47.09;78.45;;
61249;Laerm;47119;49.130;9.218;2023-07-22T14:25:49;61.22;46.47;76.41;;
61249;Laerm;47119;49.130;9.218;2023-07-22T14:28:16;64.63;47.05;74.32;;
61249;Laerm;47119;49.130;9.218;2023-07-22T14:30:48;69.72;49.43;80.78;;
61249;Laerm;47119;49.130;9.218;2023-07-22T14:33:18;82.78;50.34;87.89;;
61249;Laerm;47119;49.130;9.218;2023-07-22T14:35:45;82.11;71.95;87.69;;
61249;Laerm;47119;49.130;9.218;2023-07-22T14:38:14;82.18;60.98;86.33;;
61249;Laerm;47119;49.130;9.218;2023-07-22T14:40:41;65.61;46.96;80.10;;
61249;Laerm;47119;49.130;9.218;2023-07-22T14:43:08;56.61;46.95;67.96;;
61249;Laerm;47119;49.130;9.218;2023-07-22T14:45:35;63.15;47.76;69.77;;
61249;Laerm;47119;49.130;9.218;2023-07-22T14:48:03;63.79;49.43;71.63;;
61249;Laerm;47119;49.130;9.218;2023-07-22T14:50:30;64.59;49.41;70.40;;
61249;Laerm;47119;49.130;9.218;2023-07-22T14:53:00;71.84;48.53;79.94;;
61249;Laerm;47119;49.130;9.218;2023-07-22T14:55:33;75.67;67.92;77.93;;
61249;Laerm;47119;49.130;9.218;2023-07-22T14:58:00;76.14;52.13;83.81;;
61249;Laerm;47119;49.130;9.218;2023-07-22T15:00:27;75.26;52.13;84.20;;
61249;Laerm;47119;49.130;9.218;2023-07-22T15:02:54;75.13;51.09;83.98;;
61249;Laerm;47119;49.130;9.218;2023-07-22T15:05:24;72.06;49.82;80.80;;
61249;Laerm;47119;49.130;9.218;2023-07-22T15:07:52;71.92;56.61;80.03;;